createdAt,value
2018-03-02T00:01:52.968Z,99953.38
2018-03-02T00:04:22.169Z,99947.20
2018-03-02T00:06:51.363Z,99948.79
2018-03-02T00:09:22.469Z,99942.06
2018-03-02T00:11:53.785Z,99937.61
2018-03-02T00:14:25.993Z,99943.89
2018-03-02T00:16:56.895Z,99932.69
2018-03-02T00:19:28.533Z,99934.33
2018-03-02T00:22:00.591Z,99927.55
2018-03-02T00:24:31.009Z,99922.89
2018-03-02T00:27:00.423Z,99933.00
2018-03-02T00:29:33.971Z,99930.72
2018-03-02T00:32:03.069Z,99928.59
2018-03-02T00:34:33.256Z,99925.92
2018-03-02T00:37:03.883Z,99933.14
2018-03-02T00:39:34.491Z,99924.16
2018-03-02T00:42:08.151Z,99924.62
2018-03-02T00:44:37.425Z,99912.77
2018-03-02T00:47:06.819Z,99923.03
2018-03-02T00:49:39.630Z,99922.63
2018-03-02T00:52:09.037Z,99919.98
2018-03-02T00:54:41.091Z,99917.42
2018-03-02T00:57:11.716Z,99912.36
2018-03-02T00:59:42.460Z,99906.42
2018-03-02T01:02:12.217Z,99894.13
2018-03-02T01:04:44.322Z,99890.58
2018-03-02T01:07:15.114Z,99885.91
2018-03-02T01:09:45.672Z,99880.49
2018-03-02T01:12:18.015Z,99877.38
2018-03-02T01:14:48.480Z,99865.30
2018-03-02T01:17:19.024Z,99852.71
2018-03-02T01:19:49.819Z,99852.76
2018-03-02T01:22:22.832Z,99846.02
2018-03-02T01:24:54.595Z,99846.30
2018-03-02T01:27:24.301Z,99847.44
2018-03-02T01:29:53.791Z,99845.20
2018-03-02T01:32:24.517Z,99842.12
2018-03-02T01:34:56.073Z,99843.73
2018-03-02T01:37:26.560Z,99847.09
2018-03-02T01:40:01.020Z,99842.86
2018-03-02T01:42:34.960Z,99837.27
2018-03-02T01:45:04.426Z,99834.30
2018-03-02T01:47:33.668Z,99826.61
2018-03-02T01:50:03.003Z,99827.88
2018-03-02T01:52:33.265Z,99826.19
2018-03-02T01:55:02.452Z,99827.47
2018-03-02T01:57:33.695Z,99826.67
2018-03-02T02:00:07.582Z,99820.28
2018-03-02T02:02:36.839Z,99796.28
2018-03-02T02:05:08.202Z,99825.02
2018-03-02T02:07:37.443Z,99814.42
2018-03-02T02:10:08.078Z,99808.55
2018-03-02T02:12:37.567Z,99809.82
2018-03-02T02:15:08.916Z,99808.19
2018-03-02T02:17:42.179Z,99802.23
2018-03-02T02:20:14.444Z,99797.61
2018-03-02T02:22:43.770Z,99794.59
2018-03-02T02:25:13.637Z,99787.01
2018-03-02T02:27:45.353Z,99793.92
2018-03-02T02:30:14.680Z,99781.16
2018-03-02T02:32:45.158Z,99783.79
2018-03-02T02:35:15.928Z,99778.77
2018-03-02T02:37:46.434Z,99780.84
2018-03-02T02:40:20.682Z,99774.42
2018-03-02T02:42:50.153Z,99765.16
2018-03-02T02:45:19.635Z,99766.55
2018-03-02T02:47:48.876Z,99763.97
2018-03-02T02:50:21.405Z,99749.09
2018-03-02T02:52:50.772Z,99760.65
2018-03-02T02:55:21.856Z,99749.22
2018-03-02T02:57:53.691Z,99744.99
2018-03-02T03:00:24.254Z,99741.61
2018-03-02T03:02:54.142Z,99740.00
2018-03-02T03:05:25.256Z,99736.19
2018-03-02T03:07:55.779Z,99738.34
2018-03-02T03:10:28.139Z,99738.39
2018-03-02T03:12:57.404Z,99731.22
2018-03-02T03:15:27.291Z,99732.60
2018-03-02T03:18:00.646Z,99726.70
2018-03-02T03:20:30.212Z,99729.34
2018-03-02T03:23:02.139Z,99714.11
2018-03-02T03:25:33.487Z,99719.11
2018-03-02T03:28:03.075Z,99712.71
2018-03-02T03:30:34.224Z,99715.18
2018-03-02T03:33:05.888Z,99714.61
2018-03-02T03:35:36.096Z,99702.20
2018-03-02T03:38:07.757Z,99712.19
2018-03-02T03:40:37.387Z,99688.98
2018-03-02T03:43:08.439Z,99696.29
2018-03-02T03:45:40.799Z,99690.73
2018-03-02T03:48:13.905Z,99684.75
2018-03-02T03:50:43.098Z,99683.16
2018-03-02T03:53:12.686Z,99678.06
2018-03-02T03:55:44.752Z,99680.03
2018-03-02T03:58:16.036Z,99679.77
2018-03-02T04:00:46.047Z,99685.05
2018-03-02T04:03:16.954Z,99685.95
2018-03-02T04:05:47.751Z,99678.16
2018-03-02T04:08:18.827Z,99678.26
2018-03-02T04:10:49.039Z,99674.83
2018-03-02T04:13:18.982Z,99668.50
2018-03-02T04:15:51.078Z,99667.21
2018-03-02T04:18:22.788Z,99666.27
2018-03-02T04:20:53.445Z,99660.06
2018-03-02T04:23:25.320Z,99663.88
2018-03-02T04:25:55.444Z,99662.28
2018-03-02T04:28:26.683Z,99657.12
2018-03-02T04:30:55.991Z,99658.59
2018-03-02T04:33:28.703Z,99666.28
2018-03-02T04:35:58.526Z,99669.94
2018-03-02T04:38:27.958Z,99664.41
2018-03-02T04:41:01.308Z,99657.84
2018-03-02T04:43:31.595Z,99662.16
2018-03-02T04:46:01.860Z,99662.03
2018-03-02T04:48:32.799Z,99660.31
2018-03-02T04:51:03.928Z,99654.70
2018-03-02T04:53:34.499Z,99647.74
2018-03-02T04:56:04.684Z,99656.25
2018-03-02T04:58:40.472Z,99647.19
2018-03-02T05:01:09.547Z,99644.72
2018-03-02T05:03:38.716Z,99646.46
2018-03-02T05:06:09.652Z,99637.19
2018-03-02T05:08:40.284Z,99640.03
2018-03-02T05:11:11.184Z,99644.23
2018-03-02T05:13:41.498Z,99633.34
2018-03-02T05:16:11.084Z,99645.55
2018-03-02T05:18:42.047Z,99633.13
2018-03-02T05:21:13.861Z,99636.23
2018-03-02T05:23:43.840Z,99639.69
2018-03-02T05:26:14.387Z,99639.67
2018-03-02T05:28:46.179Z,99634.67
2018-03-02T05:31:15.874Z,99641.91
2018-03-02T05:33:47.057Z,99627.41
2018-03-02T05:36:19.837Z,99632.42
2018-03-02T05:38:50.335Z,99627.71
2018-03-02T05:41:20.278Z,99621.36
2018-03-02T05:43:50.884Z,99625.20
2018-03-02T05:46:27.528Z,99624.06
2018-03-02T05:48:56.547Z,99609.23
2018-03-02T05:51:25.976Z,99622.71
2018-03-02T05:53:55.371Z,99620.27
2018-03-02T05:56:24.832Z,99621.92
2018-03-02T05:58:55.595Z,99620.69
2018-03-02T06:01:26.250Z,99621.70
2018-03-02T06:04:00.127Z,99625.05
2018-03-02T06:06:29.398Z,99637.34
2018-03-02T06:09:01.013Z,99637.83
2018-03-02T06:11:31.428Z,99633.27
2018-03-02T06:14:01.521Z,99628.97
2018-03-02T06:16:31.426Z,99632.88
2018-03-02T06:19:02.520Z,99622.73
2018-03-02T06:21:33.104Z,99629.66
2018-03-02T06:24:04.488Z,99630.39
2018-03-02T06:26:34.996Z,99628.61
2018-03-02T06:29:05.947Z,99618.86
2018-03-02T06:31:36.872Z,99617.15
2018-03-02T06:34:07.785Z,99613.70
2018-03-02T06:36:38.703Z,99613.22
2018-03-02T06:39:10.163Z,99611.80
2018-03-02T06:41:44.127Z,99611.27
2018-03-02T06:44:13.318Z,99606.56
2018-03-02T06:46:43.566Z,99599.88
2018-03-02T06:49:15.833Z,99601.78
2018-03-02T06:51:46.289Z,99596.81
2018-03-02T06:54:16.616Z,99587.48
2018-03-02T06:56:46.995Z,99586.70
2018-03-02T06:59:18.368Z,99589.08
2018-03-02T07:01:49.626Z,99591.16
2018-03-02T07:04:20.896Z,99585.16
2018-03-02T07:06:51.338Z,99582.06
2018-03-02T07:09:20.168Z,99579.85
2018-03-02T07:11:51.245Z,99571.75
2018-03-02T07:14:26.319Z,99587.09
2018-03-02T07:17:03.035Z,99574.95
2018-03-02T07:19:32.341Z,99573.02
2018-03-02T07:22:01.511Z,99565.69
2018-03-02T07:24:30.575Z,99569.27
2018-03-02T07:26:59.816Z,99565.48
2018-03-02T07:29:29.326Z,99556.68
2018-03-02T07:31:59.875Z,99553.89
2018-03-02T07:34:30.636Z,99552.16
2018-03-02T07:37:00.929Z,99537.86
2018-03-02T07:39:32.311Z,99536.27
2018-03-02T07:42:02.843Z,99526.41
2018-03-02T07:44:35.505Z,99529.94
2018-03-02T07:47:04.407Z,99518.20
2018-03-02T07:49:35.730Z,99522.84
2018-03-02T07:52:05.314Z,99519.65
2018-03-02T07:54:35.935Z,99509.12
2018-03-02T07:57:06.508Z,99505.44
2018-03-02T07:59:38.055Z,99501.67
2018-03-02T08:02:08.766Z,99499.13
2018-03-02T08:04:40.087Z,99496.64
2018-03-02T08:07:11.180Z,99495.44
2018-03-02T08:09:42.528Z,99489.08
2018-03-02T08:12:14.398Z,99487.48
2018-03-02T08:14:45.974Z,99484.53
2018-03-02T08:17:16.111Z,99491.08
2018-03-02T08:19:45.283Z,99485.45
2018-03-02T08:22:16.979Z,99485.53
2018-03-02T08:24:47.939Z,99471.12
2018-03-02T08:27:17.094Z,99478.64
2018-03-02T08:29:54.552Z,99479.39
2018-03-02T08:32:23.835Z,99479.86
2018-03-02T08:34:53.365Z,99467.50
2018-03-02T08:37:23.664Z,99454.75
2018-03-02T08:39:55.588Z,99457.55
2018-03-02T08:42:25.000Z,99462.06
2018-03-02T08:44:55.567Z,99453.52
2018-03-02T08:47:27.623Z,99454.06
2018-03-02T08:49:58.490Z,99444.77
2018-03-02T08:52:27.587Z,99441.03
2018-03-02T08:54:58.312Z,99441.77
2018-03-02T08:57:28.236Z,99440.09
2018-03-02T08:59:58.679Z,99434.60
2018-03-02T09:02:29.284Z,99434.41
2018-03-02T09:04:59.693Z,99431.73
2018-03-02T09:07:31.484Z,99426.80
2018-03-02T09:10:02.588Z,99426.53
2018-03-02T09:12:33.184Z,99418.80
2018-03-02T09:15:03.795Z,99408.69
2018-03-02T09:17:34.710Z,99409.03
2018-03-02T09:20:05.476Z,99407.79
2018-03-02T09:22:34.590Z,99409.20
2018-03-02T09:25:03.827Z,99406.45
2018-03-02T09:27:32.890Z,99401.95
2018-03-02T09:30:01.830Z,99398.61
2018-03-02T09:32:30.774Z,99389.61
2018-03-02T09:34:59.203Z,99387.39
2018-03-02T09:37:28.311Z,99382.14
2018-03-02T09:39:57.260Z,99384.66
2018-03-02T09:42:26.137Z,99373.80
2018-03-02T09:44:55.073Z,99366.01
2018-03-02T09:47:24.331Z,99358.17
2018-03-02T09:49:53.144Z,99353.72
2018-03-02T09:52:21.970Z,99358.21
2018-03-02T09:54:51.097Z,99347.51
2018-03-02T09:57:20.219Z,99348.20
2018-03-02T09:59:49.097Z,99347.67
2018-03-02T10:02:18.730Z,99345.08
2018-03-02T10:04:48.276Z,99345.56
2018-03-02T10:07:17.431Z,99346.22
2018-03-02T10:09:46.644Z,99329.46
2018-03-02T10:12:15.809Z,99331.23
2018-03-02T10:14:44.903Z,99323.98
2018-03-02T10:17:13.606Z,99308.90
2018-03-02T10:19:42.689Z,99322.09
2018-03-02T10:22:11.816Z,99318.95
2018-03-02T10:24:40.871Z,99303.45
2018-03-02T10:27:09.776Z,99302.19
2018-03-02T10:29:39.044Z,99299.37
2018-03-02T10:32:07.868Z,99299.33
2018-03-02T10:34:36.785Z,99292.40
2018-03-02T10:37:05.875Z,99291.42
2018-03-02T10:39:34.972Z,99293.25
2018-03-02T10:42:03.850Z,99287.63
2018-03-02T10:44:33.112Z,99276.98
2018-03-02T10:47:02.503Z,99280.12
2018-03-02T10:49:31.695Z,99272.55
2018-03-02T10:52:00.776Z,99254.97
2018-03-02T10:54:29.868Z,99269.08
2018-03-02T10:56:58.645Z,99263.41
2018-03-02T10:59:27.513Z,99258.57
2018-03-02T11:01:56.591Z,99251.77
2018-03-02T11:04:31.179Z,99249.03
2018-03-02T11:07:00.400Z,99247.98
2018-03-02T11:09:28.936Z,99233.68
2018-03-02T11:11:58.017Z,99234.23
2018-03-02T11:14:27.374Z,99224.77
2018-03-02T11:16:56.456Z,99226.03
2018-03-02T11:19:25.266Z,99218.33
2018-03-02T11:21:54.160Z,99215.42
2018-03-02T11:24:22.986Z,99209.53
2018-03-02T11:26:51.860Z,99198.03
2018-03-02T11:29:20.879Z,99196.28
2018-03-02T11:31:49.772Z,99196.85
2018-03-02T11:34:18.652Z,99194.05
2018-03-02T11:36:47.595Z,99192.97
2018-03-02T11:39:16.452Z,99182.85
2018-03-02T11:41:45.611Z,99168.33
2018-03-02T11:44:14.809Z,99171.08
2018-03-02T11:46:43.627Z,99178.97
2018-03-02T11:49:12.453Z,99171.81
2018-03-02T11:51:41.675Z,99172.55
2018-03-02T11:54:10.571Z,99157.80
2018-03-02T11:56:39.731Z,99156.03
2018-03-02T11:59:08.895Z,99160.02
2018-03-02T12:01:37.761Z,99150.55
2018-03-02T12:04:06.856Z,99149.39
2018-03-02T12:06:36.285Z,99151.67
2018-03-02T12:09:04.527Z,99149.93
2018-03-02T12:11:33.351Z,99146.04
2018-03-02T12:14:02.662Z,99145.02
2018-03-02T12:16:31.743Z,99143.51
2018-03-02T12:19:01.418Z,99134.45
2018-03-02T12:21:30.625Z,99127.02
2018-03-02T12:23:59.818Z,99123.91
2018-03-02T12:26:28.988Z,99114.89
2018-03-02T12:28:58.992Z,99111.83
2018-03-02T12:31:28.255Z,99109.19
2018-03-02T12:33:57.536Z,99108.34
2018-03-02T12:36:28.804Z,99104.15
2018-03-02T12:38:57.899Z,99098.68
2018-03-02T12:41:27.048Z,99099.31
2018-03-02T12:43:57.687Z,99099.06
2018-03-02T12:46:28.127Z,99091.11
2018-03-02T12:48:58.911Z,99089.11
2018-03-02T12:51:29.724Z,99092.41
2018-03-02T12:54:00.678Z,99090.08
2018-03-02T12:56:31.152Z,99088.73
2018-03-02T12:59:01.924Z,99081.82
2018-03-02T13:01:32.862Z,99081.41
2018-03-02T13:04:04.234Z,99079.54
2018-03-02T13:06:34.778Z,99078.61
2018-03-02T13:09:05.180Z,99077.72
2018-03-02T13:11:35.574Z,99076.19
2018-03-02T13:14:06.256Z,99066.77
2018-03-02T13:16:37.639Z,99077.59
2018-03-02T13:19:08.267Z,99072.64
2018-03-02T13:21:39.651Z,99067.82
2018-03-02T13:24:10.706Z,99060.81
2018-03-02T13:26:52.316Z,99062.98
2018-03-02T13:29:21.369Z,99067.71
2018-03-02T13:31:50.558Z,99063.70
2018-03-02T13:34:30.831Z,99074.26
2018-03-02T13:36:59.936Z,99064.98
2018-03-02T13:39:40.191Z,99060.72
2018-03-02T13:42:10.191Z,99064.21
2018-03-02T13:44:39.008Z,99048.96
2018-03-02T13:47:08.111Z,99060.88
2018-03-02T13:49:48.248Z,99056.50
2018-03-02T13:52:17.125Z,99048.42
2018-03-02T13:54:46.150Z,99049.91
2018-03-02T13:57:26.243Z,99051.34
2018-03-02T13:59:55.319Z,99050.58
2018-03-02T14:02:35.031Z,99039.39
2018-03-02T14:05:03.900Z,99041.05
2018-03-02T14:07:32.780Z,99044.05
2018-03-02T14:10:01.868Z,99041.18
2018-03-02T14:12:30.702Z,99037.83
2018-03-02T14:14:59.962Z,99044.03
2018-03-02T14:17:28.784Z,99043.84
2018-03-02T14:19:57.727Z,99041.68
2018-03-02T14:22:26.934Z,99039.52
2018-03-02T14:24:55.701Z,99033.17
2018-03-02T14:27:24.766Z,99031.80
2018-03-02T14:29:53.930Z,99026.21
2018-03-02T14:32:23.079Z,99022.97
2018-03-02T14:34:52.544Z,99020.02
2018-03-02T14:37:21.724Z,99021.55
2018-03-02T14:39:51.120Z,99018.66
2018-03-02T14:42:20.325Z,99019.12
2018-03-02T14:44:49.494Z,99020.65
2018-03-02T14:47:18.644Z,99022.53
2018-03-02T14:49:48.008Z,99021.72
2018-03-02T14:52:17.468Z,99019.68
2018-03-02T14:54:46.813Z,99016.69
2018-03-02T14:57:17.452Z,99023.14
2018-03-02T14:59:47.204Z,99016.55
2018-03-02T15:02:17.908Z,99011.52
2018-03-02T15:04:48.796Z,99017.05
2018-03-02T15:07:19.828Z,99010.95
2018-03-02T15:09:51.579Z,99008.63
2018-03-02T15:12:21.282Z,99013.08
2018-03-02T15:14:51.885Z,99014.27
2018-03-02T15:17:22.742Z,99010.72
2018-03-02T15:19:53.598Z,99010.84
2018-03-02T15:22:24.223Z,99011.36
2018-03-02T15:24:54.768Z,99016.98
2018-03-02T15:27:25.788Z,99015.09
2018-03-02T15:29:56.723Z,99017.30
2018-03-02T15:32:28.097Z,99016.03
2018-03-02T15:34:58.980Z,99013.62
2018-03-02T15:37:29.540Z,99010.12
2018-03-02T15:40:00.835Z,99015.27
2018-03-02T15:42:31.304Z,99017.00
2018-03-02T15:45:01.849Z,99013.14
2018-03-02T15:47:32.779Z,99011.13
2018-03-02T15:50:03.644Z,99014.38
2018-03-02T15:52:34.613Z,99027.27
2018-03-02T15:55:05.514Z,99026.48
2018-03-02T15:57:36.527Z,99033.52
2018-03-02T16:00:07.980Z,99034.81
2018-03-02T16:02:38.524Z,99035.89
2018-03-02T16:05:08.980Z,99036.27
2018-03-02T16:07:39.847Z,99046.35
2018-03-02T16:10:10.992Z,99040.36
2018-03-02T16:12:41.857Z,99042.31
2018-03-02T16:15:13.340Z,99046.38
2018-03-02T16:17:44.700Z,99040.81
2018-03-02T16:20:15.151Z,99041.09
2018-03-02T16:22:49.851Z,99053.25
2018-03-02T16:25:19.614Z,99052.09
2018-03-02T16:27:49.746Z,99057.45
2018-03-02T16:30:19.156Z,99063.21
2018-03-02T16:32:49.836Z,99063.10
2018-03-02T16:35:20.416Z,99065.17
2018-03-02T16:37:51.365Z,99066.33
2018-03-02T16:40:22.534Z,99067.84
2018-03-02T16:42:52.150Z,99062.50
2018-03-02T16:45:22.545Z,99064.28
2018-03-02T16:47:53.308Z,99062.36
2018-03-02T16:50:24.737Z,99067.16
2018-03-02T16:52:55.139Z,99069.24
2018-03-02T16:55:26.030Z,99073.38
2018-03-02T16:57:58.032Z,99077.02
2018-03-02T17:00:27.262Z,99083.25
2018-03-02T17:02:58.237Z,99076.84
2018-03-02T17:05:28.537Z,99083.32
2018-03-02T17:07:59.972Z,99087.17
2018-03-02T17:10:33.169Z,99082.93
2018-03-02T17:13:02.357Z,99088.94
2018-03-02T17:15:33.006Z,99091.50
2018-03-02T17:18:04.857Z,99091.98
2018-03-02T17:20:34.103Z,99087.34
2018-03-02T17:23:04.863Z,99085.13
2018-03-02T17:25:37.171Z,99098.84
2018-03-02T17:28:06.692Z,99103.13
2018-03-02T17:30:38.722Z,99106.77
2018-03-02T17:33:08.532Z,99106.77
2018-03-02T17:35:40.026Z,99109.77
2018-03-02T17:38:11.068Z,99116.36
2018-03-02T17:40:41.649Z,99116.23
2018-03-02T17:43:16.369Z,99119.20
2018-03-02T17:45:47.156Z,99120.59
2018-03-02T17:48:16.761Z,99115.33
2018-03-02T17:50:47.492Z,99121.34
2018-03-02T17:53:16.888Z,99122.44
2018-03-02T17:55:46.664Z,99127.67
2018-03-02T17:58:22.460Z,99128.84
2018-03-02T18:00:51.501Z,99130.20
2018-03-02T18:03:21.049Z,99123.17
2018-03-02T18:05:54.236Z,99125.05
2018-03-02T18:08:23.584Z,99131.27
2018-03-02T18:10:53.890Z,99125.73
2018-03-02T18:13:23.484Z,99129.91
2018-03-02T18:15:54.049Z,99128.55
2018-03-02T18:18:27.860Z,99137.84
2018-03-02T18:20:57.059Z,99132.11
2018-03-02T18:23:27.409Z,99132.93
2018-03-02T18:25:58.236Z,99138.89
2018-03-02T18:28:29.984Z,99132.66
2018-03-02T18:30:59.755Z,99145.80
2018-03-02T18:33:31.058Z,99148.20
2018-03-02T18:36:03.348Z,99150.22
2018-03-02T18:38:34.296Z,99152.45
2018-03-02T18:41:04.717Z,99153.93
2018-03-02T18:43:34.042Z,99151.70
2018-03-02T18:46:05.424Z,99159.52
2018-03-02T18:48:38.264Z,99157.73
2018-03-02T18:51:08.289Z,99171.98
2018-03-02T18:53:38.283Z,99169.03
2018-03-02T18:56:08.981Z,99169.45
2018-03-02T18:58:40.231Z,99168.28
2018-03-02T19:01:10.714Z,99166.41
2018-03-02T19:03:43.452Z,99171.27
2018-03-02T19:06:12.879Z,99162.06
2018-03-02T19:08:42.595Z,99165.75
2018-03-02T19:11:15.540Z,99179.39
2018-03-02T19:13:45.537Z,99184.36
2018-03-02T19:16:21.344Z,99175.06
2018-03-02T19:18:51.086Z,99183.04
2018-03-02T19:21:20.655Z,99185.86
2018-03-02T19:23:51.061Z,99188.19
2018-03-02T19:26:20.973Z,99184.96
2018-03-02T19:28:50.834Z,99196.83
2018-03-02T19:31:22.344Z,99201.42
2018-03-02T19:33:51.798Z,99204.92
2018-03-02T19:36:24.348Z,99202.22
2018-03-02T19:38:56.545Z,99208.09
2018-03-02T19:41:25.942Z,99212.07
2018-03-02T19:43:55.550Z,99212.53
2018-03-02T19:46:25.337Z,99212.86
2018-03-02T19:48:57.023Z,99218.03
2018-03-02T19:51:29.878Z,99223.88
2018-03-02T19:53:59.520Z,99230.94
2018-03-02T19:56:30.262Z,99235.73
2018-03-02T19:59:00.960Z,99235.62
2018-03-02T20:01:33.673Z,99232.94
2018-03-02T20:04:06.410Z,99241.27
2018-03-02T20:06:35.767Z,99227.23
2018-03-02T20:09:06.823Z,99236.33
2018-03-02T20:11:39.914Z,99231.54
2018-03-02T20:14:10.697Z,99241.11
2018-03-02T20:16:42.382Z,99239.59
2018-03-02T20:19:11.935Z,99244.02
2018-03-02T20:21:41.832Z,99240.39
2018-03-02T20:24:12.873Z,99242.38
2018-03-02T20:26:42.456Z,99234.30
2018-03-02T20:29:12.800Z,99237.61
2018-03-02T20:31:44.695Z,99231.84
2018-03-02T20:34:15.306Z,99228.41
2018-03-02T20:36:47.660Z,99229.63
2018-03-02T20:39:17.660Z,99236.55
2018-03-02T20:41:48.722Z,99237.77
2018-03-02T20:44:21.582Z,99239.59
2018-03-02T20:46:51.089Z,99237.92
2018-03-02T20:49:20.656Z,99237.55
2018-03-02T20:51:52.423Z,99244.52
2018-03-02T20:54:22.178Z,99239.00
2018-03-02T20:56:57.017Z,99243.48
2018-03-02T20:59:26.676Z,99233.32
2018-03-02T21:01:56.264Z,99226.49
2018-03-02T21:04:26.676Z,99227.47
2018-03-02T21:06:56.389Z,99228.42
2018-03-02T21:09:30.231Z,99230.28
2018-03-02T21:11:59.513Z,99238.66
2018-03-02T21:14:30.729Z,99237.52
2018-03-02T21:17:01.015Z,99229.41
2018-03-02T21:19:31.549Z,99230.27
2018-03-02T21:22:03.129Z,99222.69
2018-03-02T21:24:35.034Z,99230.05
2018-03-02T21:27:06.092Z,99225.51
2018-03-02T21:29:36.901Z,99228.52
2018-03-02T21:32:08.740Z,99225.71
2018-03-02T21:34:37.803Z,99225.86
2018-03-02T21:37:08.976Z,99229.05
2018-03-02T21:39:39.292Z,99229.63
2018-03-02T21:42:10.798Z,99234.92
2018-03-02T21:44:40.524Z,99226.10
2018-03-02T21:47:12.668Z,99224.58
2018-03-02T21:49:47.206Z,99224.52
2018-03-02T21:52:17.178Z,99222.34
2018-03-02T21:54:48.398Z,99227.64
2018-03-02T21:57:20.156Z,99223.09
2018-03-02T21:59:51.565Z,99236.51
2018-03-02T22:02:21.007Z,99241.32
2018-03-02T22:04:50.707Z,99228.77
2018-03-02T22:07:20.637Z,99239.59
2018-03-02T22:09:51.226Z,99232.52
2018-03-02T22:12:21.070Z,99231.66
2018-03-02T22:14:52.552Z,99226.61
2018-03-02T22:17:24.911Z,99221.12
2018-03-02T22:19:55.345Z,99227.66
2018-03-02T22:22:24.746Z,99229.47
2018-03-02T22:24:55.376Z,99226.59
2018-03-02T22:27:26.510Z,99231.88
2018-03-02T22:29:58.173Z,99220.48
2018-03-02T22:32:29.088Z,99225.25
2018-03-02T22:34:58.737Z,99216.47
2018-03-02T22:37:30.417Z,99216.47
2018-03-02T22:40:00.320Z,99214.89
2018-03-02T22:42:32.544Z,99218.03
2018-03-02T22:45:04.908Z,99218.30
2018-03-02T22:47:34.571Z,99214.02
2018-03-02T22:50:07.394Z,99202.14
2018-03-02T22:52:36.711Z,99203.13
2018-03-02T22:55:07.558Z,99209.19
2018-03-02T22:57:36.465Z,99205.45
2018-03-02T23:00:06.665Z,99206.98
2018-03-02T23:02:37.193Z,99206.16
2018-03-02T23:05:11.117Z,99195.28
2018-03-02T23:07:40.470Z,99194.51
2018-03-02T23:10:11.930Z,99196.32
2018-03-02T23:12:41.625Z,99191.30
2018-03-02T23:15:14.417Z,99198.86
2018-03-02T23:17:43.942Z,99199.77
2018-03-02T23:20:14.561Z,99200.75
2018-03-02T23:22:46.719Z,99202.64
2018-03-02T23:25:17.497Z,99208.31
2018-03-02T23:27:49.713Z,99215.34
2018-03-02T23:30:19.732Z,99201.84
2018-03-02T23:32:49.947Z,99211.36
2018-03-02T23:35:19.856Z,99203.00
2018-03-02T23:37:51.247Z,99207.72
2018-03-02T23:40:22.048Z,99202.75
2018-03-02T23:42:54.221Z,99207.17
2018-03-02T23:45:25.487Z,99209.44
2018-03-02T23:47:57.606Z,99209.56
2018-03-02T23:50:26.615Z,99213.94
2018-03-02T23:52:57.185Z,99207.72
2018-03-02T23:55:35.126Z,99207.42
2018-03-02T23:58:06.537Z,99210.97
